Time;durP1;ratioP1;P1;durP2;ratioP2;P2;SDS_P1;SDS_P2;PMS_P1;PMS_P2;Temp;Humidity;BMP_temperature;BMP_pressure;BME280_temperature;BME280_humidity;BME280_pressure;Samples;Min_cycle;Max_cycle;Signal;HPM_P1;HPM_P2
2022/08/03 15:10:39;;;;;;;3.20;1.63;;;28.60;51.20;;;;;;5080830;28;21150;-73
2022/08/03 15:13:06;;;;;;;2.03;1.77;;;28.50;51.10;;;;;;5089626;28;20040;-73
2022/08/03 15:15:52;;;;;;;1.92;1.70;;;28.70;51.20;;;;;;5028341;28;20056;-73
2022/08/03 15:18:19;;;;;;;1.90;1.80;;;28.50;52.50;;;;;;5038908;28;20033;-73
2022/08/03 15:20:47;;;;;;;4.38;2.10;;;28.70;52.50;;;;;;5055979;28;20119;-73
2022/08/03 15:23:14;;;;;;;6.13;2.40;;;28.70;53.10;;;;;;5046284;28;20111;-75
2022/08/03 15:25:41;;;;;;;1.83;1.73;;;28.70;52.10;;;;;;5042094;28;20034;-75
2022/08/03 15:28:07;;;;;;;2.83;1.92;;;28.70;52.50;;;;;;5042004;28;20064;-74
2022/08/03 15:30:35;;;;;;;6.70;4.20;;;28.80;52.40;;;;;;5046441;28;20157;-73
2022/08/03 15:33:02;;;;;;;2.05;1.80;;;28.70;52.30;;;;;;5044025;28;20043;-73
2022/08/03 15:35:28;;;;;;;1.73;1.58;;;28.80;51.50;;;;;;5057555;28;20127;-74
2022/08/03 15:37:54;;;;;;;2.60;1.95;;;28.80;51.80;;;;;;5031230;28;20037;-73
2022/08/03 15:40:23;;;;;;;1.90;1.40;;;28.80;49.60;;;;;;5042524;28;20684;-77
2022/08/03 15:42:49;;;;;;;4.25;1.70;;;28.80;49.10;;;;;;5055006;28;20045;-74
2022/08/03 15:45:15;;;;;;;4.32;1.50;;;28.80;50.10;;;;;;5040524;28;20056;-78
2022/08/03 15:47:41;;;;;;;1.60;1.50;;;28.90;49.20;;;;;;5031585;28;20060;-76
2022/08/03 15:50:07;;;;;;;1.45;1.35;;;28.70;50.70;;;;;;5026786;28;20049;-74
2022/08/03 15:52:33;;;;;;;1.58;1.48;;;28.80;51.00;;;;;;5042546;28;20029;-74
2022/08/03 15:54:59;;;;;;;4.15;1.50;;;28.50;52.30;;;;;;5043807;28;20042;-75
2022/08/03 15:57:26;;;;;;;2.30;1.73;;;28.70;52.10;;;;;;5089309;28;20103;-73
2022/08/03 16:00:01;;;;;;;3.38;1.50;;;28.60;51.60;;;;;;5077477;28;20037;-77
2022/08/03 16:02:27;;;;;;;1.60;1.50;;;28.60;50.20;;;;;;5058049;28;20033;-74
2022/08/03 16:04:53;;;;;;;3.63;1.40;;;28.60;51.60;;;;;;5075081;28;20044;-74
2022/08/03 16:07:41;;;;;;;1.38;1.27;;;28.60;51.30;;;;;;5061189;28;20032;-74
2022/08/03 16:10:05;;;;;;;1.67;1.58;;;28.70;50.60;;;;;;5079969;28;20060;-74
2022/08/03 16:12:31;;;;;;;2.45;1.60;;;28.60;50.70;;;;;;5060889;28;20090;-73
2022/08/03 16:14:58;;;;;;;1.98;1.40;;;28.60;50.90;;;;;;5074858;28;20124;-75
2022/08/03 16:17:24;;;;;;;1.58;1.48;;;28.60;50.40;;;;;;5058993;28;20048;-76
2022/08/03 16:19:56;;;;;;;1.52;1.42;;;28.60;51.10;;;;;;5061674;28;20029;-76
2022/08/03 16:22:25;;;;;;;1.58;1.48;;;28.60;50.50;;;;;;5055156;28;20037;-75
2022/08/03 16:24:53;;;;;;;2.00;1.60;;;28.60;50.60;;;;;;5045430;28;20034;-75
2022/08/03 16:27:20;;;;;;;1.60;1.50;;;28.60;50.60;;;;;;5048930;28;20083;-75
2022/08/03 16:29:46;;;;;;;1.52;1.30;;;28.40;50.50;;;;;;5053933;28;20082;-73
2022/08/03 16:32:12;;;;;;;2.50;1.50;;;28.60;51.20;;;;;;5048292;28;20485;-71
2022/08/03 16:34:39;;;;;;;2.13;1.70;;;28.50;50.70;;;;;;5052460;28;20400;-73
2022/08/03 16:37:06;;;;;;;3.05;1.90;;;28.50;50.50;;;;;;5052378;28;20026;-75
2022/08/03 16:39:32;;;;;;;2.70;1.90;;;28.60;55.10;;;;;;5051350;28;20052;-77
2022/08/03 16:41:59;;;;;;;5.30;1.70;;;28.60;52.90;;;;;;5039825;28;20489;-75
2022/08/03 16:44:26;;;;;;;1.60;1.50;;;28.60;51.80;;;;;;5047543;28;20032;-76
2022/08/03 16:46:52;;;;;;;1.60;1.50;;;28.70;52.50;;;;;;5059172;28;20043;-75
2022/08/03 16:49:18;;;;;;;3.97;1.70;;;28.50;52.80;;;;;;5059740;28;20059;-76
2022/08/03 16:51:44;;;;;;;1.80;1.70;;;28.60;52.70;;;;;;5047450;28;20037;-75
2022/08/03 16:54:10;;;;;;;4.38;1.70;;;28.70;52.40;;;;;;5059953;28;20036;-74
2022/08/03 16:56:36;;;;;;;4.03;1.73;;;28.80;52.00;;;;;;5034935;28;20068;-77
2022/08/03 16:59:03;;;;;;;3.08;2.20;;;28.70;51.50;;;;;;5065531;28;20059;-76
2022/08/03 17:01:30;;;;;;;2.78;1.50;;;28.80;51.20;;;;;;5050721;28;20021;-72
2022/08/03 17:03:59;;;;;;;2.08;1.67;;;28.70;49.70;;;;;;5047903;28;20036;-74
2022/08/03 17:06:25;;;;;;;2.10;1.90;;;28.70;49.20;;;;;;5045403;28;20067;-75
2022/08/03 17:08:52;;;;;;;2.10;1.60;;;28.70;49.20;;;;;;5054193;28;20302;-75
2022/08/03 17:11:18;;;;;;;1.60;1.50;;;28.80;48.90;;;;;;5051223;28;20497;-74
2022/08/03 17:13:45;;;;;;;1.75;1.65;;;28.80;48.40;;;;;;5051645;28;20029;-72
2022/08/03 17:16:13;;;;;;;1.80;1.70;;;28.80;48.70;;;;;;5049744;28;20469;-74
2022/08/03 17:18:54;;;;;;;1.60;1.50;;;28.80;48.60;;;;;;5050347;28;20063;-72
2022/08/03 17:21:31;;;;;;;3.80;2.03;;;28.90;48.70;;;;;;5067035;28;20025;-73
2022/08/03 17:24:18;;;;;;;1.77;1.67;;;28.90;48.20;;;;;;5040728;28;20088;-76
2022/08/03 17:26:48;;;;;;;2.22;1.50;;;28.90;48.10;;;;;;5057660;28;20044;-74
2022/08/03 17:29:18;;;;;;;1.80;1.70;;;28.90;48.00;;;;;;5070451;28;20048;-79
2022/08/03 17:31:44;;;;;;;2.45;1.90;;;28.90;48.00;;;;;;5049383;28;20115;-81
2022/08/03 17:34:11;;;;;;;3.08;1.40;;;29.00;48.30;;;;;;5047211;28;20036;-73
2022/08/03 17:36:37;;;;;;;3.05;1.92;;;28.90;47.70;;;;;;5064269;28;20063;-74
2022/08/03 17:39:05;;;;;;;1.75;1.50;;;29.00;48.20;;;;;;5052542;28;20125;-75
2022/08/03 17:41:36;;;;;;;2.60;1.77;;;28.90;47.70;;;;;;5049852;28;20065;-70
2022/08/03 17:44:03;;;;;;;1.88;1.58;;;29.10;48.40;;;;;;5034302;28;20390;-72
2022/08/03 17:46:29;;;;;;;2.70;2.00;;;29.00;48.20;;;;;;5080411;28;20463;-73
2022/08/03 17:48:55;;;;;;;9.93;1.90;;;29.10;48.20;;;;;;5056925;28;20045;-72
2022/08/03 17:51:49;;;;;;;1.83;1.70;;;29.10;48.10;;;;;;5052131;28;20036;-72
2022/08/03 17:54:19;;;;;;;3.15;1.85;;;28.90;47.40;;;;;;5043414;28;20040;-71
2022/08/03 17:57:07;;;;;;;2.03;1.80;;;29.00;47.90;;;;;;5066678;28;20131;-72
2022/08/03 17:59:41;;;;;;;3.97;1.60;;;29.00;47.90;;;;;;5053893;28;20667;-74
2022/08/03 18:05:20;;;;;;;2.43;1.97;;;28.90;47.20;;;;;;5065419;28;20047;-72
2022/08/03 18:07:50;;;;;;;3.75;1.90;;;29.00;48.10;;;;;;5065734;28;20033;-78
2022/08/03 18:10:21;;;;;;;3.55;1.77;;;29.00;47.70;;;;;;5052536;28;20045;-73
2022/08/03 18:13:02;;;;;;;5.40;1.75;;;29.00;47.90;;;;;;5052048;28;20059;-74
2022/08/03 18:15:34;;;;;;;2.35;1.80;;;29.10;47.80;;;;;;5054804;28;20033;-71
2022/08/03 18:18:04;;;;;;;2.50;1.55;;;28.90;47.20;;;;;;5062192;28;20036;-72
2022/08/03 18:20:32;;;;;;;2.13;1.90;;;28.90;47.20;;;;;;5032056;28;20048;-73
2022/08/03 18:23:00;;;;;;;3.15;1.92;;;29.00;47.50;;;;;;5036364;28;20036;-73
2022/08/03 18:25:27;;;;;;;1.95;1.80;;;29.10;47.50;;;;;;5068284;28;20040;-71
2022/08/03 18:27:53;;;;;;;3.25;1.73;;;29.10;47.60;;;;;;5062090;28;20028;-73
2022/08/03 18:30:19;;;;;;;2.55;2.28;;;29.10;47.40;;;;;;5043295;28;20389;-73
2022/08/03 18:32:45;;;;;;;4.43;2.28;;;29.10;47.60;;;;;;5062464;28;20159;-73
2022/08/03 18:35:12;;;;;;;1.60;1.50;;;29.10;47.70;;;;;;5059541;28;20025;-72
2022/08/03 18:37:38;;;;;;;3.53;2.00;;;29.00;47.70;;;;;;5061289;28;20064;-74
2022/08/03 18:40:06;;;;;;;3.15;1.77;;;29.10;47.50;;;;;;5043852;28;20448;-76
2022/08/03 18:42:32;;;;;;;5.07;2.17;;;28.90;47.00;;;;;;5035183;28;20025;-72
2022/08/03 18:44:58;;;;;;;1.98;1.85;;;29.00;47.80;;;;;;5051250;28;20393;-71
2022/08/03 18:47:54;;;;;;;2.95;2.20;;;29.00;48.00;;;;;;5063835;28;20059;-69
2022/08/03 18:50:26;;;;;;;1.95;1.85;;;29.10;48.00;;;;;;5057241;28;20135;-71
2022/08/03 18:53:06;;;;;;;2.47;2.10;;;29.10;48.10;;;;;;5059250;28;20037;-71
2022/08/03 18:55:37;;;;;;;3.67;2.05;;;29.00;48.20;;;;;;5054508;28;20033;-71
2022/08/03 18:58:12;;;;;;;2.20;1.70;;;28.90;47.10;;;;;;5051353;28;20066;-73
2022/08/03 19:00:49;;;;;;;5.68;2.05;;;29.00;48.10;;;;;;5061086;28;20441;-74
2022/08/03 19:03:22;;;;;;;5.95;1.70;;;28.90;48.50;;;;;;5066712;28;20465;-72
2022/08/03 19:06:04;;;;;;;2.15;1.65;;;29.00;51.20;;;;;;5033125;28;20037;-70
2022/08/03 19:08:42;;;;;;;3.00;2.47;;;29.10;52.60;;;;;;5065953;28;20048;-72
2022/08/03 19:11:15;;;;;;;1.83;1.67;;;28.90;52.10;;;;;;5048848;28;20064;-72
2022/08/03 19:13:49;;;;;;;1.58;1.48;;;29.00;53.00;;;;;;5037446;28;20055;-72
2022/08/03 19:16:37;;;;;;;2.92;2.00;;;29.10;52.90;;;;;;5031936;28;20041;-72
2022/08/03 19:19:07;;;;;;;3.83;1.63;;;29.00;53.00;;;;;;5045829;28;20072;-71
2022/08/03 19:21:34;;;;;;;1.80;1.70;;;29.10;52.50;;;;;;5051359;28;20041;-71
2022/08/03 19:24:02;;;;;;;2.05;1.63;;;29.20;51.60;;;;;;5051147;28;20033;-68
2022/08/03 19:26:28;;;;;;;3.42;1.90;;;29.10;51.20;;;;;;5051189;28;20048;-67
2022/08/03 19:28:56;;;;;;;2.70;1.63;;;29.10;50.50;;;;;;5047179;28;20072;-68
2022/08/03 19:31:24;;;;;;;4.03;1.50;;;29.10;50.20;;;;;;5051232;28;20067;-68
2022/08/03 19:33:52;;;;;;;2.22;1.67;;;29.10;49.60;;;;;;5048535;28;20677;-71
2022/08/03 19:36:20;;;;;;;2.47;1.83;;;29.10;49.60;;;;;;5050981;28;20028;-69
2022/08/03 19:38:46;;;;;;;2.13;1.88;;;29.00;49.50;;;;;;5052647;28;20044;-71
2022/08/03 19:41:16;;;;;;;2.22;1.90;;;29.10;49.50;;;;;;5043564;28;20037;-71
2022/08/03 19:43:52;;;;;;;8.68;1.60;;;29.10;49.80;;;;;;5042268;28;20045;-71
2022/08/03 19:46:20;;;;;;;2.90;1.60;;;29.10;49.90;;;;;;5049262;28;20045;-72
2022/08/03 19:49:14;;;;;;;1.70;1.60;;;29.10;49.90;;;;;;5055686;28;20449;-72
2022/08/03 19:51:40;;;;;;;1.90;1.73;;;29.30;49.80;;;;;;5027354;28;20040;-70
2022/08/03 19:54:12;;;;;;;2.17;1.63;;;29.10;50.10;;;;;;5009932;28;20077;-70
2022/08/03 19:56:45;;;;;;;2.60;1.90;;;29.20;50.30;;;;;;5028439;28;20077;-73
2022/08/03 19:59:14;;;;;;;3.50;1.90;;;29.30;50.40;;;;;;5029330;28;20034;-70
2022/08/03 20:01:43;;;;;;;3.10;2.15;;;29.30;50.50;;;;;;5029903;28;20509;-70
2022/08/03 20:04:11;;;;;;;1.80;1.70;;;29.40;50.60;;;;;;5026052;28;20112;-71
2022/08/03 20:06:37;;;;;;;5.10;2.00;;;29.20;50.80;;;;;;5025862;28;20030;-68
2022/08/03 20:09:04;;;;;;;1.77;1.67;;;29.30;50.90;;;;;;5021567;28;20092;-67
2022/08/03 20:11:31;;;;;;;1.80;1.70;;;29.40;50.00;;;;;;5027780;28;20064;-67
2022/08/03 20:13:58;;;;;;;4.88;1.77;;;29.30;49.40;;;;;;5012194;28;20636;-67
2022/08/03 20:16:24;;;;;;;1.95;1.85;;;29.30;49.10;;;;;;5012617;28;20120;-67
2022/08/03 20:18:50;;;;;;;2.22;1.95;;;29.30;48.90;;;;;;5028631;28;20385;-67
2022/08/03 20:21:21;;;;;;;2.10;1.90;;;29.40;49.00;;;;;;5048021;28;20045;-68
2022/08/03 20:23:52;;;;;;;3.65;1.77;;;29.40;48.80;;;;;;5031809;28;20517;-68
2022/08/03 20:26:19;;;;;;;2.13;1.73;;;29.30;48.90;;;;;;5023653;28;20041;-67
2022/08/03 20:28:51;;;;;;;3.42;1.90;;;29.60;48.90;;;;;;5015626;28;20084;-67
2022/08/03 20:31:18;;;;;;;3.10;1.48;;;29.40;48.90;;;;;;5034280;28;20478;-68
2022/08/03 20:33:46;;;;;;;3.10;1.90;;;29.40;48.90;;;;;;5036532;28;20041;-67
2022/08/03 20:36:13;;;;;;;2.58;1.92;;;29.40;48.90;;;;;;5053871;28;20474;-67
2022/08/03 20:38:39;;;;;;;2.50;1.92;;;29.30;49.00;;;;;;5054113;28;20040;-67
2022/08/03 20:41:06;;;;;;;1.77;1.63;;;29.40;48.90;;;;;;5053686;28;20083;-67
2022/08/03 20:43:33;;;;;;;2.25;1.73;;;29.40;48.90;;;;;;5052662;28;20037;-67
2022/08/03 20:45:59;;;;;;;2.25;2.05;;;29.30;48.90;;;;;;5053859;28;20060;-68
2022/08/03 20:48:26;;;;;;;2.30;2.10;;;29.40;48.90;;;;;;5044161;28;20060;-67
2022/08/03 20:50:54;;;;;;;2.92;2.17;;;29.40;48.90;;;;;;5036949;28;20056;-67
2022/08/03 20:53:20;;;;;;;1.90;1.80;;;29.30;48.80;;;;;;5070079;28;20037;-67
2022/08/03 20:55:46;;;;;;;1.92;1.80;;;29.30;48.80;;;;;;5069232;28;20123;-67
2022/08/03 20:58:13;;;;;;;2.67;2.47;;;29.30;48.80;;;;;;5062449;28;20043;-67
2022/08/03 21:00:42;;;;;;;6.97;2.25;;;29.30;48.80;;;;;;5064517;28;20036;-67
2022/08/03 21:03:08;;;;;;;3.72;2.00;;;29.40;48.80;;;;;;5062725;28;20075;-67
2022/08/03 21:05:40;;;;;;;2.28;2.15;;;29.40;48.80;;;;;;5053544;28;20033;-66
2022/08/03 21:08:09;;;;;;;1.83;1.73;;;29.30;48.80;;;;;;5048835;28;20039;-67
2022/08/03 21:10:38;;;;;;;3.03;2.10;;;29.30;48.80;;;;;;5052958;28;20049;-67
2022/08/03 21:13:21;;;;;;;4.95;2.28;;;29.40;48.80;;;;;;5051229;28;20480;-67
2022/08/03 21:15:50;;;;;;;6.25;2.10;;;29.20;48.90;;;;;;5044984;28;20041;-67
2022/08/03 21:18:17;;;;;;;2.83;1.90;;;29.20;48.80;;;;;;5052890;28;20040;-68
2022/08/03 21:20:44;;;;;;;3.55;2.05;;;29.20;48.90;;;;;;5053163;28;20043;-67
2022/08/03 21:23:12;;;;;;;3.40;1.88;;;29.20;49.00;;;;;;5051901;28;20044;-68
2022/08/03 21:25:42;;;;;;;1.77;1.52;;;29.20;49.00;;;;;;5020424;28;20044;-67
2022/08/03 21:28:08;;;;;;;2.17;1.88;;;29.10;49.00;;;;;;5069251;28;20085;-67
2022/08/03 21:30:35;;;;;;;2.47;1.98;;;29.20;49.00;;;;;;5047203;28;20045;-67
2022/08/03 21:33:05;;;;;;;2.95;1.90;;;29.20;49.00;;;;;;5066916;28;20022;-67
2022/08/03 21:35:32;;;;;;;3.03;2.10;;;29.10;49.00;;;;;;5052723;28;20029;-67
2022/08/03 21:40:45;;;;;;;2.70;2.10;;;29.10;49.00;;;;;;5063698;28;20198;-67
2022/08/03 21:43:11;;;;;;;2.55;2.30;;;29.10;49.00;;;;;;5049365;28;20086;-67
2022/08/03 21:45:58;;;;;;;2.47;2.28;;;29.20;49.00;;;;;;5062510;28;20167;-67
2022/08/03 21:48:27;;;;;;;3.13;2.42;;;29.20;49.10;;;;;;5061781;28;20063;-67
2022/08/03 21:50:53;;;;;;;4.85;2.67;;;29.00;49.10;;;;;;5044420;28;20504;-67
2022/08/03 21:53:22;;;;;;;7.20;2.47;;;29.00;49.10;;;;;;5072305;28;20024;-68
2022/08/03 21:56:05;;;;;;;4.90;2.88;;;29.10;49.10;;;;;;5072563;28;20032;-67
2022/08/03 21:58:39;;;;;;;4.90;1.83;;;29.00;49.10;;;;;;5059700;28;20094;-67
2022/08/03 22:01:07;;;;;;;3.20;2.28;;;28.90;48.60;;;;;;5055706;28;20036;-67
2022/08/03 22:03:35;;;;;;;5.97;1.92;;;29.00;49.20;;;;;;5065032;28;20066;-68
2022/08/03 22:06:01;;;;;;;4.18;2.08;;;28.90;48.60;;;;;;5106344;27;20069;-67
2022/08/03 22:08:28;;;;;;;3.13;2.50;;;29.00;49.20;;;;;;5051477;28;20025;-67
2022/08/03 22:10:55;;;;;;;2.55;2.35;;;28.80;48.80;;;;;;5057190;28;20131;-67
2022/08/03 22:13:21;;;;;;;2.72;2.53;;;28.80;48.80;;;;;;5063749;28;20115;-68
2022/08/03 22:15:47;;;;;;;3.58;2.60;;;28.70;48.80;;;;;;5060068;28;20033;-67
2022/08/03 22:18:14;;;;;;;3.67;2.17;;;28.80;48.80;;;;;;5066741;28;20063;-66
2022/08/03 22:20:42;;;;;;;1.88;1.77;;;28.80;48.80;;;;;;5068356;28;20056;-68
2022/08/03 22:23:09;;;;;;;2.60;2.20;;;28.80;48.80;;;;;;5052283;28;20029;-67
2022/08/03 22:25:38;;;;;;;5.22;2.63;;;28.70;48.80;;;;;;5063137;28;20040;-67
2022/08/03 22:28:08;;;;;;;2.30;2.10;;;28.80;48.90;;;;;;5069058;28;20079;-67
2022/08/03 22:30:34;;;;;;;7.65;3.05;;;28.80;48.90;;;;;;5065421;28;20143;-66
2022/08/03 22:33:03;;;;;;;2.72;2.50;;;28.80;48.90;;;;;;5068904;28;20064;-66
2022/08/03 22:35:31;;;;;;;2.70;2.50;;;28.70;48.90;;;;;;5049942;28;20082;-67
2022/08/03 22:37:59;;;;;;;3.88;2.67;;;28.70;48.90;;;;;;5092969;28;20044;-67
2022/08/03 22:40:26;;;;;;;5.80;2.70;;;28.80;49.00;;;;;;5064025;28;20553;-67
2022/08/03 22:42:53;;;;;;;3.08;2.50;;;28.80;49.00;;;;;;5051886;28;20033;-67
2022/08/03 22:45:19;;;;;;;3.13;2.72;;;28.80;49.00;;;;;;5051658;28;20037;-68
2022/08/03 22:47:46;;;;;;;3.50;2.63;;;28.70;49.10;;;;;;5071623;28;20032;-67
2022/08/03 22:50:14;;;;;;;3.97;2.72;;;28.70;49.10;;;;;;5054579;28;20043;-67
2022/08/03 22:52:42;;;;;;;6.32;2.55;;;28.70;49.10;;;;;;5031934;28;20034;-67
2022/08/03 22:55:13;;;;;;;2.92;2.40;;;28.70;49.10;;;;;;5062534;28;20528;-67
2022/08/03 22:57:40;;;;;;;4.03;2.60;;;28.80;49.20;;;;;;5065804;28;20418;-67
2022/08/03 23:00:10;;;;;;;5.15;2.85;;;28.80;49.20;;;;;;5042991;28;20821;-67
2022/08/03 23:02:40;;;;;;;6.78;2.70;;;28.70;49.20;;;;;;5052074;28;20405;-67
2022/08/03 23:05:12;;;;;;;3.72;2.60;;;28.60;49.30;;;;;;5062448;28;20051;-67
2022/08/03 23:07:39;;;;;;;5.57;3.13;;;28.70;49.30;;;;;;5071208;28;20037;-67
2022/08/03 23:10:12;;;;;;;2.78;2.17;;;28.70;49.40;;;;;;5069665;28;20489;-68
2022/08/03 23:12:39;;;;;;;3.15;2.60;;;28.70;49.40;;;;;;5064769;28;20479;-67
2022/08/03 23:15:08;;;;;;;2.70;2.50;;;28.50;49.50;;;;;;5052659;28;20041;-66
2022/08/03 23:17:58;;;;;;;7.45;2.55;;;28.50;49.50;;;;;;5034851;28;20037;-67
2022/08/03 23:20:25;;;;;;;3.90;2.53;;;28.60;49.50;;;;;;5031801;28;20040;-67
2022/08/03 23:22:52;;;;;;;2.35;2.15;;;28.60;49.60;;;;;;5031303;28;20112;-67
2022/08/03 23:25:20;;;;;;;6.93;2.80;;;28.50;49.60;;;;;;5051379;28;20029;-68
2022/08/03 23:27:48;;;;;;;3.60;2.50;;;28.70;49.60;;;;;;5067416;28;20068;-68
2022/08/03 23:30:14;;;;;;;3.85;2.42;;;28.50;49.70;;;;;;5065671;28;20036;-68
2022/08/03 23:32:43;;;;;;;5.05;2.95;;;28.60;49.70;;;;;;5075022;28;20230;-66
2022/08/03 23:37:55;;;;;;;2.72;2.25;;;28.50;49.70;;;;;;5074950;28;20505;-67
2022/08/03 23:40:29;;;;;;;3.55;2.78;;;28.50;49.80;;;;;;5075187;28;20037;-68
2022/08/03 23:42:57;;;;;;;3.85;2.63;;;28.50;49.80;;;;;;5069536;28;20382;-68
2022/08/03 23:45:26;;;;;;;2.55;2.35;;;28.50;49.80;;;;;;5053710;28;21520;-67
2022/08/03 23:47:52;;;;;;;4.18;2.55;;;28.50;49.80;;;;;;5074837;28;20055;-67
2022/08/03 23:50:18;;;;;;;2.50;2.30;;;28.50;49.90;;;;;;5060709;28;20048;-68
2022/08/03 23:53:14;;;;;;;2.33;2.08;;;28.50;49.80;;;;;;5053491;28;20378;-67
2022/08/03 23:55:40;;;;;;;3.28;2.40;;;28.50;49.80;;;;;;5064111;28;20062;-67
2022/08/03 23:58:29;;;;;;;3.65;2.58;;;28.50;49.80;;;;;;5062872;28;20450;-67
